Time;durP1;ratioP1;P1;durP2;ratioP2;P2;SDS_P1;SDS_P2;PMS_P1;PMS_P2;Temp;Humidity;BMP_temperature;BMP_pressure;BME280_temperature;BME280_humidity;BME280_pressure;Samples;Min_cycle;Max_cycle;Signal;HPM_P1;HPM_P2
2022/11/30 00:00:32;;;;;;;50.88;21.75;;;;;;;;;;4980901;28;20146;-68
2022/11/30 00:02:57;;;;;;;60.15;25.35;;;;;;;;;;4982634;28;20060;-68
2022/11/30 00:05:23;;;;;;;57.03;24.70;;;;;;;;;;4981618;28;20403;-68
2022/11/30 00:07:49;;;;;;;47.92;20.92;;;;;;;;;;4982512;28;20384;-68
2022/11/30 00:10:15;;;;;;;57.80;22.77;;;;;;;;;;4982193;28;20054;-67
2022/11/30 00:12:41;;;;;;;51.78;23.33;;;;;;;;;;4982089;28;20484;-68
2022/11/30 00:15:15;;;;;;;47.60;21.63;;;;;;;;;;4981484;28;20050;-67
2022/11/30 00:17:41;;;;;;;59.22;23.33;;;;;;;;;;4981251;28;20050;-68
2022/11/30 00:20:08;;;;;;;45.65;17.58;;;;;;;;;;4981799;28;20054;-68
2022/11/30 00:22:34;;;;;;;59.38;22.88;;;;;;;;;;4981749;28;20038;-68
2022/11/30 00:25:01;;;;;;;57.60;23.42;;;;;;;;;;4982495;28;20396;-68
2022/11/30 00:27:27;;;;;;;71.75;26.45;;;;;;;;;;4981274;28;20053;-67
2022/11/30 00:29:53;;;;;;;61.40;24.48;;;;;;;;;;4982129;28;20042;-67
2022/11/30 00:32:18;;;;;;;66.35;25.75;;;;;;;;;;4979722;28;20038;-68
2022/11/30 00:34:44;;;;;;;63.53;24.73;;;;;;;;;;4982036;28;20039;-68
2022/11/30 00:37:10;;;;;;;67.20;24.10;;;;;;;;;;4981390;28;20067;-68
2022/11/30 00:39:35;;;;;;;67.93;25.30;;;;;;;;;;4981884;28;20046;-68
2022/11/30 00:42:01;;;;;;;62.15;26.27;;;;;;;;;;4981155;28;20495;-70
2022/11/30 00:44:26;;;;;;;68.00;26.55;;;;;;;;;;4981903;28;20057;-68
2022/11/30 00:46:52;;;;;;;60.25;24.30;;;;;;;;;;4981929;28;20046;-68
2022/11/30 00:49:17;;;;;;;55.05;22.58;;;;;;;;;;4980705;28;20062;-68
2022/11/30 00:51:43;;;;;;;56.42;23.48;;;;;;;;;;4983159;28;20133;-67
2022/11/30 00:54:08;;;;;;;60.95;24.02;;;;;;;;;;4982648;28;20042;-67
2022/11/30 00:56:33;;;;;;;58.38;24.98;;;;;;;;;;4983250;28;20046;-67
2022/11/30 00:58:59;;;;;;;65.47;25.65;;;;;;;;;;4981772;28;20816;-66
2022/11/30 01:01:24;;;;;;;58.58;22.95;;;;;;;;;;4981801;28;20085;-66
2022/11/30 01:03:50;;;;;;;59.45;24.48;;;;;;;;;;4982241;28;20165;-67
2022/11/30 01:06:15;;;;;;;65.95;25.48;;;;;;;;;;4980517;28;20117;-66
2022/11/30 01:08:41;;;;;;;66.68;24.98;;;;;;;;;;4981205;28;20407;-65
2022/11/30 01:11:11;;;;;;;59.25;24.55;;;;;;;;;;4979608;28;20042;-65
2022/11/30 01:13:37;;;;;;;65.03;26.02;;;;;;;;;;4979849;28;20153;-65
2022/11/30 01:16:08;;;;;;;60.80;23.83;;;;;;;;;;4979886;28;20068;-67
2022/11/30 01:18:36;;;;;;;71.82;27.23;;;;;;;;;;4980650;28;20516;-65
2022/11/30 01:21:05;;;;;;;59.28;22.52;;;;;;;;;;4981660;28;20454;-67
2022/11/30 01:23:31;;;;;;;66.38;25.33;;;;;;;;;;4996169;28;20062;-67
2022/11/30 01:25:56;;;;;;;63.10;24.42;;;;;;;;;;4981291;28;20054;-67
2022/11/30 01:28:22;;;;;;;58.70;24.63;;;;;;;;;;4979726;28;20128;-67
2022/11/30 01:30:58;;;;;;;57.22;24.02;;;;;;;;;;4980322;28;20076;-67
2022/11/30 01:33:24;;;;;;;57.78;23.45;;;;;;;;;;4981430;28;20140;-67
2022/11/30 01:36:09;;;;;;;63.20;24.83;;;;;;;;;;4981126;28;20472;-68
2022/11/30 01:38:39;;;;;;;60.63;23.40;;;;;;;;;;4962869;28;20054;-67
2022/11/30 01:41:06;;;;;;;60.38;24.75;;;;;;;;;;4980267;28;20153;-67
2022/11/30 01:43:53;;;;;;;57.53;24.38;;;;;;;;;;4980599;28;20069;-67
2022/11/30 01:46:27;;;;;;;54.13;21.65;;;;;;;;;;4980338;28;20042;-68
2022/11/30 01:49:02;;;;;;;57.25;24.35;;;;;;;;;;4979946;28;20084;-68
2022/11/30 01:51:31;;;;;;;67.93;25.52;;;;;;;;;;4979676;28;20085;-67
2022/11/30 01:53:57;;;;;;;58.63;24.20;;;;;;;;;;4981004;28;20158;-67
2022/11/30 01:56:22;;;;;;;60.83;23.83;;;;;;;;;;4980523;28;20104;-68
2022/11/30 01:58:48;;;;;;;58.00;24.30;;;;;;;;;;4981069;28;20046;-67
2022/11/30 02:01:14;;;;;;;62.92;23.30;;;;;;;;;;4979943;28;20136;-67
2022/11/30 02:03:53;;;;;;;58.97;23.60;;;;;;;;;;4980732;28;20412;-67
2022/11/30 02:06:19;;;;;;;55.10;24.00;;;;;;;;;;4980037;28;20205;-66
2022/11/30 02:08:45;;;;;;;63.50;24.27;;;;;;;;;;4981172;28;20129;-66
2022/11/30 02:11:14;;;;;;;74.68;25.75;;;;;;;;;;4980738;28;20082;-66
2022/11/30 02:14:14;;;;;;;74.93;25.88;;;;;;;;;;4979957;28;20046;-67
2022/11/30 02:16:48;;;;;;;59.88;22.38;;;;;;;;;;4978451;28;20435;-66
2022/11/30 02:19:13;;;;;;;65.45;24.42;;;;;;;;;;4981216;28;20105;-67
2022/11/30 02:22:10;;;;;;;78.60;25.92;;;;;;;;;;4980301;28;20050;-67
2022/11/30 02:24:44;;;;;;;63.85;23.05;;;;;;;;;;4977182;28;20081;-67
2022/11/30 02:27:34;;;;;;;64.50;24.13;;;;;;;;;;4980942;28;20128;-66
2022/11/30 02:30:12;;;;;;;65.57;25.27;;;;;;;;;;4980648;28;20502;-67
2022/11/30 02:32:50;;;;;;;69.97;25.25;;;;;;;;;;4975710;28;20050;-67
2022/11/30 02:35:18;;;;;;;71.35;25.90;;;;;;;;;;4979254;28;20062;-67
2022/11/30 02:37:45;;;;;;;70.43;26.23;;;;;;;;;;4980535;28;20844;-67
2022/11/30 02:40:14;;;;;;;70.18;25.33;;;;;;;;;;4980178;28;20137;-67
2022/11/30 02:42:39;;;;;;;77.97;26.73;;;;;;;;;;4983410;28;20128;-68
2022/11/30 02:45:06;;;;;;;85.72;28.48;;;;;;;;;;4984046;28;20065;-67
2022/11/30 02:47:58;;;;;;;79.75;25.42;;;;;;;;;;4982078;28;20046;-68
2022/11/30 02:50:29;;;;;;;81.38;29.42;;;;;;;;;;4983508;28;20069;-67
2022/11/30 02:52:55;;;;;;;86.68;28.88;;;;;;;;;;4984028;28;20042;-68
2022/11/30 02:55:21;;;;;;;82.53;27.20;;;;;;;;;;4984053;28;20411;-68
2022/11/30 02:57:46;;;;;;;73.50;25.95;;;;;;;;;;4983128;28;20050;-67
2022/11/30 03:00:13;;;;;;;74.97;26.65;;;;;;;;;;4983078;28;20054;-67
2022/11/30 03:02:40;;;;;;;65.45;25.30;;;;;;;;;;4983404;28;20056;-67
2022/11/30 03:05:07;;;;;;;66.82;24.90;;;;;;;;;;4983927;28;20046;-67
2022/11/30 03:07:32;;;;;;;71.45;25.92;;;;;;;;;;4983044;28;20073;-67
2022/11/30 03:09:58;;;;;;;78.55;28.05;;;;;;;;;;4984039;28;20674;-67
2022/11/30 03:12:24;;;;;;;79.40;27.63;;;;;;;;;;4982625;28;20046;-67
2022/11/30 03:14:50;;;;;;;81.53;26.70;;;;;;;;;;4983977;28;20076;-67
2022/11/30 03:17:15;;;;;;;79.15;26.17;;;;;;;;;;4983551;28;20120;-67
2022/11/30 03:19:41;;;;;;;75.80;25.65;;;;;;;;;;4982675;28;20193;-67
2022/11/30 03:22:07;;;;;;;74.10;26.23;;;;;;;;;;4982526;28;20038;-67
2022/11/30 03:24:32;;;;;;;72.18;25.50;;;;;;;;;;4983527;28;20050;-68
2022/11/30 03:26:57;;;;;;;68.47;26.60;;;;;;;;;;4983351;28;20046;-68
2022/11/30 03:29:23;;;;;;;62.95;25.80;;;;;;;;;;4982414;28;20089;-68
2022/11/30 03:31:48;;;;;;;52.97;22.90;;;;;;;;;;4982961;28;20752;-67
2022/11/30 03:34:14;;;;;;;57.63;22.63;;;;;;;;;;4982749;28;20061;-68
2022/11/30 03:36:39;;;;;;;57.10;22.08;;;;;;;;;;4983289;28;20050;-67
2022/11/30 03:39:05;;;;;;;61.42;23.13;;;;;;;;;;4983186;28;20061;-68
2022/11/30 03:41:30;;;;;;;55.85;23.92;;;;;;;;;;4981754;28;20062;-67
2022/11/30 03:43:55;;;;;;;49.55;20.98;;;;;;;;;;4983103;28;20069;-67
2022/11/30 03:46:22;;;;;;;52.13;22.77;;;;;;;;;;4982524;28;20058;-67
2022/11/30 03:48:47;;;;;;;60.72;24.48;;;;;;;;;;4982837;28;20109;-68
2022/11/30 03:51:13;;;;;;;62.88;24.60;;;;;;;;;;4981996;28;20058;-68
2022/11/30 03:53:39;;;;;;;59.85;22.77;;;;;;;;;;4982482;28;20049;-67
2022/11/30 03:56:07;;;;;;;55.70;22.73;;;;;;;;;;4982149;28;20519;-66
2022/11/30 03:58:33;;;;;;;51.50;20.67;;;;;;;;;;4982764;28;20050;-66
2022/11/30 04:01:04;;;;;;;79.50;29.60;;;;;;;;;;4982086;28;20046;-66
2022/11/30 04:03:30;;;;;;;71.18;24.90;;;;;;;;;;4979411;28;20046;-66
2022/11/30 04:05:57;;;;;;;58.55;24.10;;;;;;;;;;4982624;28;20053;-66
2022/11/30 04:08:23;;;;;;;72.40;26.73;;;;;;;;;;4982143;28;20480;-66
2022/11/30 04:10:54;;;;;;;68.05;28.20;;;;;;;;;;4982570;28;21069;-66
2022/11/30 04:13:20;;;;;;;64.53;25.02;;;;;;;;;;4981470;28;20061;-66
2022/11/30 04:15:48;;;;;;;79.15;28.67;;;;;;;;;;4982387;28;20357;-66
2022/11/30 04:18:14;;;;;;;67.80;24.88;;;;;;;;;;4981915;28;20141;-66
2022/11/30 04:20:40;;;;;;;68.88;25.00;;;;;;;;;;4982148;28;20038;-66
2022/11/30 04:23:08;;;;;;;73.30;25.98;;;;;;;;;;4982098;28;20058;-67
2022/11/30 04:25:35;;;;;;;59.88;24.95;;;;;;;;;;4981328;28;20053;-67
2022/11/30 04:28:01;;;;;;;71.40;24.75;;;;;;;;;;4982150;28;20898;-67
2022/11/30 04:30:26;;;;;;;45.10;17.85;;;;;;;;;;4981119;28;20050;-68
2022/11/30 04:32:52;;;;;;;56.70;22.88;;;;;;;;;;4976003;28;20409;-67
2022/11/30 04:35:17;;;;;;;55.83;22.17;;;;;;;;;;4977338;28;20053;-69
2022/11/30 04:37:43;;;;;;;64.32;22.92;;;;;;;;;;4981238;28;20452;-67
2022/11/30 04:40:08;;;;;;;54.22;21.40;;;;;;;;;;4980866;28;21224;-67
2022/11/30 04:42:34;;;;;;;68.43;25.60;;;;;;;;;;4979958;28;20054;-67
2022/11/30 04:44:59;;;;;;;79.03;27.48;;;;;;;;;;4980824;28;20046;-69
2022/11/30 04:47:25;;;;;;;84.55;26.52;;;;;;;;;;4979966;28;20467;-67
2022/11/30 04:49:50;;;;;;;65.05;23.50;;;;;;;;;;4981154;28;20574;-67
2022/11/30 04:52:16;;;;;;;86.10;29.70;;;;;;;;;;4979728;28;20176;-67
2022/11/30 04:54:41;;;;;;;81.38;28.10;;;;;;;;;;4981052;28;21377;-66
2022/11/30 04:57:06;;;;;;;70.88;23.83;;;;;;;;;;4980403;28;20101;-67
2022/11/30 04:59:32;;;;;;;66.47;26.15;;;;;;;;;;4980996;28;20050;-67
2022/11/30 05:01:57;;;;;;;74.50;27.67;;;;;;;;;;4980761;28;20046;-66
2022/11/30 05:04:23;;;;;;;82.63;25.85;;;;;;;;;;4980365;28;20101;-70
2022/11/30 05:06:48;;;;;;;74.20;26.02;;;;;;;;;;4981354;28;20058;-70
2022/11/30 05:09:14;;;;;;;71.45;26.88;;;;;;;;;;4979968;28;20058;-70
2022/11/30 05:11:39;;;;;;;75.32;24.95;;;;;;;;;;4962622;28;20046;-69
2022/11/30 05:14:05;;;;;;;66.13;23.80;;;;;;;;;;4980861;28;20081;-69
2022/11/30 05:16:30;;;;;;;74.57;26.50;;;;;;;;;;4980728;28;20050;-70
2022/11/30 05:18:56;;;;;;;72.65;25.50;;;;;;;;;;4979931;28;20045;-70
2022/11/30 05:21:21;;;;;;;69.57;24.33;;;;;;;;;;4979675;28;20073;-70
2022/11/30 05:23:47;;;;;;;73.43;27.08;;;;;;;;;;4980542;28;20064;-69
2022/11/30 05:26:14;;;;;;;70.00;23.85;;;;;;;;;;4980003;28;20046;-69
2022/11/30 05:28:39;;;;;;;67.63;24.48;;;;;;;;;;4996177;28;20054;-69
2022/11/30 05:31:05;;;;;;;67.60;24.25;;;;;;;;;;4979378;28;20979;-69
2022/11/30 05:33:31;;;;;;;59.13;22.48;;;;;;;;;;4981216;28;20141;-69
2022/11/30 05:35:57;;;;;;;58.97;21.20;;;;;;;;;;4979623;28;20050;-69
2022/11/30 05:38:22;;;;;;;63.47;24.63;;;;;;;;;;4985174;28;22410;-71
2022/11/30 05:40:48;;;;;;;68.32;24.17;;;;;;;;;;4987678;28;20038;-71
2022/11/30 05:43:13;;;;;;;70.85;27.02;;;;;;;;;;4986340;28;20160;-71
2022/11/30 05:45:39;;;;;;;63.70;23.05;;;;;;;;;;5003940;28;20503;-71
2022/11/30 05:48:05;;;;;;;65.93;24.33;;;;;;;;;;4987255;28;20051;-72
2022/11/30 05:50:31;;;;;;;77.38;27.25;;;;;;;;;;4981731;28;20137;-70
2022/11/30 05:52:59;;;;;;;77.20;25.38;;;;;;;;;;4978936;28;20056;-70
2022/11/30 05:55:26;;;;;;;71.70;24.83;;;;;;;;;;4980380;28;20054;-70
2022/11/30 05:57:52;;;;;;;66.07;24.02;;;;;;;;;;4981690;28;20042;-71
2022/11/30 06:00:18;;;;;;;63.28;24.73;;;;;;;;;;4986435;28;20042;-70
2022/11/30 06:02:44;;;;;;;59.53;23.95;;;;;;;;;;4984693;28;20058;-70
2022/11/30 06:05:09;;;;;;;70.53;24.25;;;;;;;;;;4983853;28;20169;-70
2022/11/30 06:07:35;;;;;;;66.63;23.08;;;;;;;;;;4981739;28;20156;-70
2022/11/30 06:10:00;;;;;;;69.68;24.52;;;;;;;;;;4984373;28;20046;-71
2022/11/30 06:12:26;;;;;;;61.63;22.88;;;;;;;;;;4979985;28;20578;-69
2022/11/30 06:14:51;;;;;;;63.05;23.33;;;;;;;;;;4978537;28;20556;-71
2022/11/30 06:17:17;;;;;;;54.88;22.00;;;;;;;;;;4978893;28;20054;-68
2022/11/30 06:19:42;;;;;;;63.15;22.55;;;;;;;;;;4983710;28;20054;-70
2022/11/30 06:22:07;;;;;;;41.83;17.10;;;;;;;;;;4982763;28;20147;-71
2022/11/30 06:24:33;;;;;;;59.42;23.02;;;;;;;;;;4983443;28;20050;-71
2022/11/30 06:26:58;;;;;;;64.07;23.73;;;;;;;;;;4982690;28;20050;-70
2022/11/30 06:29:24;;;;;;;61.75;23.65;;;;;;;;;;4998816;28;20160;-71
2022/11/30 06:31:49;;;;;;;64.57;22.33;;;;;;;;;;4983329;28;20439;-70
2022/11/30 06:34:15;;;;;;;68.50;25.08;;;;;;;;;;4983392;28;20057;-71
2022/11/30 06:36:40;;;;;;;61.92;23.70;;;;;;;;;;4981706;28;20050;-71
2022/11/30 06:39:07;;;;;;;64.10;25.35;;;;;;;;;;4982059;28;20053;-71
2022/11/30 06:41:33;;;;;;;66.60;24.30;;;;;;;;;;4983089;28;20047;-71
2022/11/30 06:43:59;;;;;;;62.78;22.83;;;;;;;;;;4983707;28;20699;-68
2022/11/30 06:46:25;;;;;;;69.80;24.65;;;;;;;;;;4981883;28;20077;-68
2022/11/30 06:48:51;;;;;;;73.25;25.63;;;;;;;;;;4983289;28;20042;-71
2022/11/30 06:51:17;;;;;;;59.72;21.65;;;;;;;;;;4983150;28;20043;-71
2022/11/30 06:53:44;;;;;;;60.08;24.13;;;;;;;;;;4983432;28;20096;-71
2022/11/30 06:56:09;;;;;;;64.85;24.33;;;;;;;;;;4982587;28;20475;-71
2022/11/30 06:58:36;;;;;;;72.47;25.45;;;;;;;;;;4982408;28;20522;-72
2022/11/30 07:01:06;;;;;;;70.75;24.48;;;;;;;;;;4982382;28;20061;-71
2022/11/30 07:03:32;;;;;;;71.82;25.73;;;;;;;;;;4982998;28;20061;-69
2022/11/30 07:05:57;;;;;;;62.85;22.67;;;;;;;;;;4983075;28;20050;-70
2022/11/30 07:08:23;;;;;;;65.43;24.20;;;;;;;;;;4981619;28;20054;-72
2022/11/30 07:10:48;;;;;;;57.97;23.55;;;;;;;;;;4982883;28;20042;-72
2022/11/30 07:13:18;;;;;;;66.38;24.50;;;;;;;;;;4983322;28;20050;-72
2022/11/30 07:15:44;;;;;;;71.13;26.15;;;;;;;;;;4983486;28;20088;-69
2022/11/30 07:18:11;;;;;;;72.93;25.58;;;;;;;;;;4982355;28;20046;-70
2022/11/30 07:20:37;;;;;;;89.43;27.42;;;;;;;;;;4982341;28;20404;-69
2022/11/30 07:26:08;;;;;;;75.82;25.08;;;;;;;;;;4983166;28;20074;-70
2022/11/30 07:28:38;;;;;;;76.95;25.70;;;;;;;;;;4979764;28;20411;-72
2022/11/30 07:31:14;;;;;;;66.72;25.80;;;;;;;;;;4981132;28;20101;-72
2022/11/30 07:33:40;;;;;;;72.82;25.88;;;;;;;;;;4982795;28;20141;-69
2022/11/30 07:36:06;;;;;;;88.93;30.05;;;;;;;;;;4981260;28;20122;-72
2022/11/30 07:38:31;;;;;;;89.93;30.17;;;;;;;;;;4982049;28;20132;-72
2022/11/30 07:40:57;;;;;;;79.75;27.08;;;;;;;;;;4982439;28;20058;-71
2022/11/30 07:43:22;;;;;;;76.70;29.55;;;;;;;;;;4981749;28;20050;-72
2022/11/30 07:45:52;;;;;;;65.07;25.48;;;;;;;;;;4983991;28;20034;-71
2022/11/30 07:48:18;;;;;;;64.32;26.15;;;;;;;;;;4983523;28;20909;-71
2022/11/30 07:50:43;;;;;;;64.97;26.95;;;;;;;;;;4982751;28;20488;-71
2022/11/30 07:53:09;;;;;;;65.45;26.50;;;;;;;;;;4982015;28;20133;-72
2022/11/30 07:55:34;;;;;;;69.80;29.50;;;;;;;;;;4982359;28;20046;-71
2022/11/30 07:57:59;;;;;;;70.50;27.55;;;;;;;;;;4982605;28;20122;-70
2022/11/30 08:00:25;;;;;;;66.50;28.20;;;;;;;;;;4979820;28;20284;-71
2022/11/30 08:02:51;;;;;;;67.22;27.65;;;;;;;;;;4982091;28;20046;-72
2022/11/30 08:05:16;;;;;;;72.75;28.40;;;;;;;;;;4981251;28;20711;-71
2022/11/30 08:07:42;;;;;;;77.88;29.08;;;;;;;;;;4982088;28;20157;-72
2022/11/30 08:10:08;;;;;;;81.43;28.02;;;;;;;;;;4981561;28;20495;-71
2022/11/30 08:12:33;;;;;;;62.50;24.58;;;;;;;;;;4981447;28;20057;-71
2022/11/30 08:14:59;;;;;;;66.90;28.30;;;;;;;;;;4981725;28;20054;-71
2022/11/30 08:17:24;;;;;;;60.17;26.60;;;;;;;;;;4981782;28;20050;-72
2022/11/30 08:19:49;;;;;;;71.88;28.30;;;;;;;;;;4981628;28;20039;-71
2022/11/30 08:22:15;;;;;;;68.90;26.85;;;;;;;;;;4981207;28;20193;-71
2022/11/30 08:24:40;;;;;;;58.58;25.00;;;;;;;;;;4982363;28;20348;-71
2022/11/30 08:27:06;;;;;;;62.55;26.58;;;;;;;;;;4979486;28;20610;-71
2022/11/30 08:29:31;;;;;;;66.47;26.13;;;;;;;;;;4981832;28;20517;-71
2022/11/30 08:31:56;;;;;;;67.93;27.27;;;;;;;;;;4981703;28;20061;-71
2022/11/30 08:34:22;;;;;;;62.63;25.98;;;;;;;;;;4986671;28;20085;-71
2022/11/30 08:36:47;;;;;;;60.15;26.23;;;;;;;;;;4985345;28;20038;-72
2022/11/30 08:39:13;;;;;;;65.93;27.27;;;;;;;;;;4980708;28;20046;-72
2022/11/30 08:41:39;;;;;;;50.30;23.00;;;;;;;;;;4980657;28;20050;-72
2022/11/30 08:44:04;;;;;;;59.63;25.90;;;;;;;;;;4981758;28;20058;-70
2022/11/30 08:46:30;;;;;;;46.42;23.17;;;;;;;;;;4981301;28;20062;-72
2022/11/30 08:48:56;;;;;;;49.88;22.65;;;;;;;;;;4980650;28;20042;-71
2022/11/30 08:51:22;;;;;;;55.75;24.77;;;;;;;;;;4980812;28;20042;-71
2022/11/30 08:53:48;;;;;;;54.60;23.40;;;;;;;;;;4981474;28;20046;-71
2022/11/30 08:56:18;;;;;;;51.47;23.80;;;;;;;;;;4980682;28;20054;-72
2022/11/30 08:58:46;;;;;;;50.95;23.45;;;;;;;;;;4980313;28;20054;-70
2022/11/30 09:01:16;;;;;;;53.97;24.73;;;;;;;;;;4980718;28;20139;-71
2022/11/30 09:03:42;;;;;;;53.35;23.58;;;;;;;;;;4982158;28;20468;-70
2022/11/30 09:06:13;;;;;;;44.63;22.45;;;;;;;;;;4980563;28;20899;-70
2022/11/30 09:08:40;;;;;;;45.90;21.95;;;;;;;;;;4980714;28;20558;-71
2022/11/30 09:11:10;;;;;;;48.35;23.13;;;;;;;;;;4980015;28;20061;-71
2022/11/30 09:13:35;;;;;;;46.10;21.30;;;;;;;;;;4981029;28;20046;-71
2022/11/30 09:16:01;;;;;;;52.47;24.38;;;;;;;;;;4980983;28;20085;-71
2022/11/30 09:18:26;;;;;;;48.65;22.92;;;;;;;;;;4980726;28;20058;-72
2022/11/30 09:20:53;;;;;;;47.65;23.10;;;;;;;;;;4979730;28;20050;-72
2022/11/30 09:23:19;;;;;;;46.63;21.98;;;;;;;;;;4980200;28;20462;-72
2022/11/30 09:25:44;;;;;;;58.17;26.30;;;;;;;;;;4981771;28;20046;-72
2022/11/30 09:28:10;;;;;;;56.90;26.42;;;;;;;;;;4979241;28;20093;-72
2022/11/30 09:30:35;;;;;;;60.80;26.70;;;;;;;;;;4980647;28;20058;-71
2022/11/30 09:33:00;;;;;;;55.75;23.80;;;;;;;;;;4980557;28;20708;-71
2022/11/30 09:35:26;;;;;;;48.47;23.25;;;;;;;;;;4981802;28;20050;-71
2022/11/30 09:37:52;;;;;;;55.22;23.00;;;;;;;;;;4980900;28;20046;-71
2022/11/30 09:40:21;;;;;;;54.50;23.42;;;;;;;;;;4980877;28;20185;-74
2022/11/30 09:43:04;;;;;;;43.83;21.33;;;;;;;;;;4978427;28;20054;-72
2022/11/30 09:45:32;;;;;;;49.92;21.38;;;;;;;;;;4980585;28;21102;-71
2022/11/30 09:48:17;;;;;;;45.80;22.55;;;;;;;;;;4980817;28;20090;-71
2022/11/30 09:50:43;;;;;;;49.58;23.00;;;;;;;;;;4980108;28;20050;-71
2022/11/30 09:53:23;;;;;;;47.90;22.08;;;;;;;;;;4983758;28;20050;-71
2022/11/30 09:55:51;;;;;;;48.72;23.00;;;;;;;;;;4983802;28;20391;-70
2022/11/30 09:58:28;;;;;;;48.38;22.40;;;;;;;;;;4982293;28;20129;-71
2022/11/30 10:00:54;;;;;;;44.17;21.20;;;;;;;;;;4981361;28;20049;-71
2022/11/30 10:03:22;;;;;;;51.47;23.77;;;;;;;;;;4984444;28;20054;-72
2022/11/30 10:06:26;;;;;;;54.22;26.80;;;;;;;;;;4984087;28;20042;-70
2022/11/30 10:09:05;;;;;;;48.47;23.65;;;;;;;;;;4926538;29;20519;-71
2022/11/30 10:11:42;;;;;;;48.90;23.95;;;;;;;;;;4935506;28;20051;-72
2022/11/30 10:14:52;;;;;;;49.33;23.23;;;;;;;;;;4964475;28;20157;-72
2022/11/30 10:17:41;;;;;;;43.22;22.15;;;;;;;;;;4976404;28;20058;-71
2022/11/30 10:20:27;;;;;;;45.22;21.58;;;;;;;;;;4983454;28;20050;-70
2022/11/30 10:23:21;;;;;;;46.35;22.83;;;;;;;;;;4962602;28;20054;-70
2022/11/30 10:25:55;;;;;;;44.50;22.13;;;;;;;;;;4998221;28;20046;-73
2022/11/30 10:28:40;;;;;;;51.28;25.05;;;;;;;;;;4982202;28;20054;-71
2022/11/30 10:31:11;;;;;;;44.97;19.83;;;;;;;;;;4983772;28;20054;-71
2022/11/30 10:33:41;;;;;;;47.17;22.20;;;;;;;;;;4984079;28;20073;-71
2022/11/30 10:36:38;;;;;;;40.78;22.00;;;;;;;;;;4983838;28;20054;-71
2022/11/30 10:39:15;;;;;;;44.80;22.30;;;;;;;;;;4982709;28;20042;-71
2022/11/30 10:41:47;;;;;;;48.22;23.50;;;;;;;;;;4987024;28;20053;-72
2022/11/30 10:44:23;;;;;;;44.63;24.35;;;;;;;;;;4984131;28;20060;-72
2022/11/30 10:46:58;;;;;;;51.03;22.58;;;;;;;;;;4983657;28;20046;-72
2022/11/30 10:49:26;;;;;;;43.90;23.75;;;;;;;;;;4982654;28;20042;-72
2022/11/30 10:51:58;;;;;;;49.72;23.02;;;;;;;;;;4983387;28;20524;-72
2022/11/30 10:54:23;;;;;;;54.75;25.50;;;;;;;;;;4983294;28;20067;-71
2022/11/30 10:56:49;;;;;;;47.97;24.92;;;;;;;;;;4983194;28;20045;-71
2022/11/30 10:59:24;;;;;;;54.83;26.38;;;;;;;;;;4983331;28;20140;-72
2022/11/30 11:01:52;;;;;;;46.85;24.40;;;;;;;;;;4982088;28;20593;-71
2022/11/30 11:04:26;;;;;;;44.80;23.92;;;;;;;;;;4982552;28;20046;-71
2022/11/30 11:07:08;;;;;;;42.67;22.42;;;;;;;;;;4983344;28;20050;-72
2022/11/30 11:09:39;;;;;;;40.67;20.90;;;;;;;;;;4981456;28;20392;-72
2022/11/30 11:12:23;;;;;;;41.83;21.20;;;;;;;;;;4982079;28;20057;-72
2022/11/30 11:15:16;;;;;;;40.95;19.92;;;;;;;;;;4982498;28;20042;-72
2022/11/30 11:17:42;;;;;;;40.17;19.98;;;;;;;;;;4982618;28;20054;-72
2022/11/30 11:20:34;;;;;;;48.95;24.35;;;;;;;;;;4982551;28;20046;-72
2022/11/30 11:23:02;;;;;;;44.53;22.83;;;;;;;;;;4981575;28;20419;-71
2022/11/30 11:25:36;;;;;;;39.63;20.15;;;;;;;;;;4984980;28;20066;-72
2022/11/30 11:28:07;;;;;;;41.60;19.70;;;;;;;;;;4985681;28;20054;-71
2022/11/30 11:30:35;;;;;;;43.40;20.27;;;;;;;;;;4982442;28;20100;-72
2022/11/30 11:33:10;;;;;;;37.03;19.20;;;;;;;;;;4996981;28;20054;-72
2022/11/30 11:35:45;;;;;;;32.90;17.30;;;;;;;;;;4982661;28;20113;-72
2022/11/30 11:38:37;;;;;;;39.03;19.85;;;;;;;;;;4982321;28;20056;-71
2022/11/30 11:41:09;;;;;;;39.50;20.10;;;;;;;;;;4982725;28;20069;-72
2022/11/30 11:43:55;;;;;;;40.65;20.45;;;;;;;;;;4983942;28;20057;-71
2022/11/30 11:46:20;;;;;;;33.60;17.95;;;;;;;;;;4993329;28;20499;-71
2022/11/30 11:49:06;;;;;;;39.08;19.48;;;;;;;;;;4982512;28;20061;-71
2022/11/30 11:51:36;;;;;;;42.15;20.10;;;;;;;;;;4982969;28;20050;-72
2022/11/30 11:54:45;;;;;;;40.58;18.33;;;;;;;;;;4983722;28;20046;-70
2022/11/30 11:57:14;;;;;;;36.13;18.35;;;;;;;;;;4927808;28;20551;-71
2022/11/30 11:59:42;;;;;;;39.45;20.45;;;;;;;;;;4941685;28;20066;-70
2022/11/30 12:02:17;;;;;;;38.97;18.40;;;;;;;;;;4961746;28;20157;-70
2022/11/30 12:05:00;;;;;;;37.90;19.80;;;;;;;;;;4982314;28;20057;-70
2022/11/30 12:07:54;;;;;;;34.63;18.13;;;;;;;;;;4981185;28;20050;-70
2022/11/30 12:10:35;;;;;;;31.48;16.42;;;;;;;;;;4997183;28;20625;-71
2022/11/30 12:13:00;;;;;;;29.48;15.32;;;;;;;;;;4988763;28;20065;-71
2022/11/30 12:15:32;;;;;;;30.48;15.73;;;;;;;;;;4988666;28;20889;-71
2022/11/30 12:18:09;;;;;;;33.75;17.23;;;;;;;;;;4983313;28;20046;-71
2022/11/30 12:20:54;;;;;;;28.45;15.00;;;;;;;;;;4982181;28;20411;-72
2022/11/30 12:23:44;;;;;;;35.25;16.88;;;;;;;;;;4984777;28;20149;-72
2022/11/30 12:26:15;;;;;;;28.20;15.13;;;;;;;;;;4981430;28;20046;-74
2022/11/30 12:28:59;;;;;;;35.42;16.75;;;;;;;;;;4995723;28;20495;-73
2022/11/30 12:31:40;;;;;;;35.33;17.58;;;;;;;;;;4982568;28;20050;-73
2022/11/30 12:34:31;;;;;;;35.88;17.52;;;;;;;;;;4996714;28;20057;-70
2022/11/30 12:37:14;;;;;;;34.00;14.50;;;;;;;;;;4934910;28;20057;-69
2022/11/30 12:40:08;;;;;;;34.65;17.95;;;;;;;;;;4978774;28;20050;-69
2022/11/30 12:43:12;;;;;;;34.65;16.90;;;;;;;;;;4978274;28;20069;-69
2022/11/30 12:45:46;;;;;;;18.85;12.23;;;;;;;;;;4981381;28;20499;-69
2022/11/30 12:48:19;;;;;;;29.98;14.75;;;;;;;;;;4994596;28;20113;-69
2022/11/30 12:51:05;;;;;;;30.90;15.57;;;;;;;;;;4985797;28;20053;-72
2022/11/30 12:53:39;;;;;;;34.28;17.08;;;;;;;;;;4980437;28;20108;-73
2022/11/30 12:56:11;;;;;;;29.35;15.48;;;;;;;;;;4980962;28;20073;-70
2022/11/30 12:58:43;;;;;;;34.28;14.88;;;;;;;;;;4976905;28;20056;-70
2022/11/30 13:01:36;;;;;;;33.03;15.63;;;;;;;;;;4979940;28;20046;-70
2022/11/30 13:04:27;;;;;;;35.90;17.25;;;;;;;;;;4980261;28;20096;-70
2022/11/30 13:07:15;;;;;;;35.10;17.00;;;;;;;;;;4978151;28;20071;-72
2022/11/30 13:09:48;;;;;;;24.92;12.85;;;;;;;;;;4972993;28;20046;-71
2022/11/30 13:12:34;;;;;;;36.63;17.70;;;;;;;;;;4979735;28;20554;-70
2022/11/30 13:15:04;;;;;;;31.98;15.82;;;;;;;;;;4981074;28;20136;-71
2022/11/30 13:17:31;;;;;;;35.30;16.45;;;;;;;;;;4982301;28;20510;-71
2022/11/30 13:20:07;;;;;;;34.22;17.42;;;;;;;;;;4985730;28;20515;-71
2022/11/30 13:22:57;;;;;;;38.60;16.92;;;;;;;;;;4982498;28;20062;-71
2022/11/30 13:25:47;;;;;;;34.75;16.77;;;;;;;;;;4983065;28;20317;-69
2022/11/30 13:28:40;;;;;;;31.55;15.48;;;;;;;;;;4984404;28;20057;-72
2022/11/30 13:31:21;;;;;;;32.72;17.30;;;;;;;;;;4985393;28;20664;-72
2022/11/30 13:33:57;;;;;;;35.58;17.63;;;;;;;;;;4966723;28;20096;-74
2022/11/30 13:36:28;;;;;;;32.30;15.90;;;;;;;;;;4982212;28;20148;-72
2022/11/30 13:39:09;;;;;;;35.58;18.38;;;;;;;;;;4984056;28;20043;-71
2022/11/30 13:41:35;;;;;;;32.97;17.25;;;;;;;;;;4982606;28;20053;-70
2022/11/30 13:44:02;;;;;;;36.72;18.27;;;;;;;;;;4979600;28;20142;-72
2022/11/30 13:46:28;;;;;;;29.75;15.38;;;;;;;;;;4980055;28;20057;-70
2022/11/30 13:49:20;;;;;;;34.83;17.90;;;;;;;;;;4981667;28;20411;-71
2022/11/30 13:51:48;;;;;;;32.38;16.55;;;;;;;;;;4981249;28;20458;-71
2022/11/30 13:54:38;;;;;;;37.17;18.10;;;;;;;;;;4980970;28;20096;-71
2022/11/30 13:57:23;;;;;;;30.77;15.32;;;;;;;;;;4979314;28;20042;-71
2022/11/30 13:59:50;;;;;;;34.03;17.77;;;;;;;;;;4985542;28;20514;-70
2022/11/30 14:02:42;;;;;;;36.30;18.00;;;;;;;;;;4981002;28;20046;-72
2022/11/30 14:05:28;;;;;;;;;;;;;;;;;;4980668;28;20169;-70
2022/11/30 14:07:59;;;;;;;36.67;18.73;;;;;;;;;;4978649;28;19921;-72
2022/11/30 14:10:27;;;;;;;32.42;16.65;;;;;;;;;;4979563;28;20057;-73
2022/11/30 14:13:01;;;;;;;35.53;17.50;;;;;;;;;;4995203;28;20070;-73
2022/11/30 14:15:51;;;;;;;38.75;18.83;;;;;;;;;;4980771;28;20105;-72
2022/11/30 14:18:21;;;;;;;36.67;18.05;;;;;;;;;;4978296;28;20057;-72
2022/11/30 14:20:58;;;;;;;35.00;18.10;;;;;;;;;;4980518;28;20050;-70
2022/11/30 14:23:39;;;;;;;34.85;17.20;;;;;;;;;;4978681;28;20046;-71
2022/11/30 14:26:09;;;;;;;42.50;19.77;;;;;;;;;;4980746;28;20046;-71
2022/11/30 14:28:56;;;;;;;40.22;18.05;;;;;;;;;;4978674;28;20053;-73
2022/11/30 14:31:25;;;;;;;39.22;19.60;;;;;;;;;;4979895;28;20333;-70
2022/11/30 14:33:56;;;;;;;38.83;18.90;;;;;;;;;;4979710;28;20030;-72
2022/11/30 14:36:26;;;;;;;42.63;20.30;;;;;;;;;;4979664;28;20046;-71
2022/11/30 14:38:51;;;;;;;43.97;20.33;;;;;;;;;;4982245;28;20058;-70
2022/11/30 14:41:24;;;;;;;39.05;20.00;;;;;;;;;;4978838;28;20050;-70